Burkeville, Texas
Current Conditions -  °F | °C
As of 12:35 PM on Thursday 30 Oct 2014 (Local Time) from KJAS Reporting Station
Clear Clear  
Wind Chill: 70°   Ceiling: Unl
Heat Index: 70°   Visibility: 10mi
Dew Point: 44°   Wind: 5mph
Humidity: 40%   Direction: 80°E
Pressure: 30.17"   Gusts: NA
Location:  31°N, 93.67°W
Report Text: KJAS 301735Z AUTO 08004KT 10SM CLR 21/07 A3017 RMK AO2 T02100069
Loading
Personal Weather Stations






























Interactive Weather Map
Tropical Storm Tracking
New forecast layout! Learn more

10-Day Weather Forecast

Advertisements
Track Severe Weather on mobile